sensor_id;sensor_type;location;lat;lon;timestamp;P1;durP1;ratioP1;P2;durP2;ratioP2
75016;SDS011;63577;39.766;2.720;2023-02-02T00:01:40;16.70;;;9.40;;
75016;SDS011;63577;39.766;2.720;2023-02-02T00:04:06;23.50;;;14.60;;
75016;SDS011;63577;39.766;2.720;2023-02-02T00:06:31;27.50;;;15.90;;
75016;SDS011;63577;39.766;2.720;2023-02-02T00:08:58;16.60;;;10.70;;
75016;SDS011;63577;39.766;2.720;2023-02-02T00:11:23;45.80;;;26.20;;
75016;SDS011;63577;39.766;2.720;2023-02-02T00:13:49;14.20;;;8.30;;
75016;SDS011;63577;39.766;2.720;2023-02-02T00:19:03;12.30;;;6.80;;
75016;SDS011;63577;39.766;2.720;2023-02-02T00:21:28;11.70;;;7.40;;
75016;SDS011;63577;39.766;2.720;2023-02-02T00:23:54;15.50;;;9.70;;
75016;SDS011;63577;39.766;2.720;2023-02-02T00:26:19;10.20;;;6.50;;
75016;SDS011;63577;39.766;2.720;2023-02-02T00:28:45;11.00;;;6.30;;
75016;SDS011;63577;39.766;2.720;2023-02-02T00:31:11;10.60;;;6.50;;
75016;SDS011;63577;39.766;2.720;2023-02-02T00:33:36;13.00;;;7.60;;
75016;SDS011;63577;39.766;2.720;2023-02-02T00:36:02;12.50;;;7.30;;
75016;SDS011;63577;39.766;2.720;2023-02-02T00:38:27;11.20;;;6.70;;
75016;SDS011;63577;39.766;2.720;2023-02-02T00:40:53;8.50;;;5.10;;
75016;SDS011;63577;39.766;2.720;2023-02-02T00:43:19;6.00;;;3.30;;
75016;SDS011;63577;39.766;2.720;2023-02-02T00:45:44;5.90;;;3.40;;
75016;SDS011;63577;39.766;2.720;2023-02-02T00:48:09;5.50;;;2.90;;
75016;SDS011;63577;39.766;2.720;2023-02-02T00:50:35;6.80;;;3.60;;
75016;SDS011;63577;39.766;2.720;2023-02-02T00:53:01;7.60;;;4.50;;
75016;SDS011;63577;39.766;2.720;2023-02-02T00:55:26;5.50;;;2.90;;
75016;SDS011;63577;39.766;2.720;2023-02-02T00:57:52;5.70;;;3.00;;
75016;SDS011;63577;39.766;2.720;2023-02-02T01:00:18;6.10;;;3.20;;
75016;SDS011;63577;39.766;2.720;2023-02-02T01:02:45;11.30;;;6.00;;
75016;SDS011;63577;39.766;2.720;2023-02-02T01:05:11;9.70;;;5.10;;
75016;SDS011;63577;39.766;2.720;2023-02-02T01:07:36;10.90;;;5.60;;
75016;SDS011;63577;39.766;2.720;2023-02-02T01:10:02;7.20;;;3.50;;
75016;SDS011;63577;39.766;2.720;2023-02-02T01:12:28;6.80;;;3.50;;
75016;SDS011;63577;39.766;2.720;2023-02-02T01:14:53;24.70;;;14.80;;
75016;SDS011;63577;39.766;2.720;2023-02-02T01:17:19;8.20;;;4.20;;
75016;SDS011;63577;39.766;2.720;2023-02-02T01:19:44;13.70;;;8.00;;
75016;SDS011;63577;39.766;2.720;2023-02-02T01:22:09;8.90;;;4.50;;
75016;SDS011;63577;39.766;2.720;2023-02-02T01:24:35;11.20;;;6.60;;
75016;SDS011;63577;39.766;2.720;2023-02-02T01:27:00;8.20;;;4.20;;
75016;SDS011;63577;39.766;2.720;2023-02-02T01:29:25;5.60;;;3.00;;
75016;SDS011;63577;39.766;2.720;2023-02-02T01:31:51;7.30;;;3.20;;
75016;SDS011;63577;39.766;2.720;2023-02-02T01:34:16;22.10;;;9.50;;
75016;SDS011;63577;39.766;2.720;2023-02-02T01:36:42;9.80;;;4.60;;
75016;SDS011;63577;39.766;2.720;2023-02-02T01:39:07;18.10;;;7.50;;
75016;SDS011;63577;39.766;2.720;2023-02-02T01:41:33;18.50;;;6.80;;
75016;SDS011;63577;39.766;2.720;2023-02-02T01:44:02;15.40;;;5.80;;
75016;SDS011;63577;39.766;2.720;2023-02-02T01:46:28;8.90;;;3.90;;
75016;SDS011;63577;39.766;2.720;2023-02-02T01:51:20;4.60;;;2.00;;
75016;SDS011;63577;39.766;2.720;2023-02-02T01:53:47;4.70;;;2.10;;
75016;SDS011;63577;39.766;2.720;2023-02-02T01:56:14;4.70;;;1.90;;
75016;SDS011;63577;39.766;2.720;2023-02-02T01:58:41;5.00;;;1.90;;
75016;SDS011;63577;39.766;2.720;2023-02-02T02:01:07;6.50;;;2.20;;
75016;SDS011;63577;39.766;2.720;2023-02-02T02:03:33;5.00;;;1.90;;
75016;SDS011;63577;39.766;2.720;2023-02-02T02:06:05;3.80;;;1.70;;
75016;SDS011;63577;39.766;2.720;2023-02-02T02:10:56;4.70;;;2.00;;
75016;SDS011;63577;39.766;2.720;2023-02-02T02:13:23;4.80;;;2.10;;
75016;SDS011;63577;39.766;2.720;2023-02-02T02:19:20;3.90;;;1.80;;
75016;SDS011;63577;39.766;2.720;2023-02-02T02:21:55;4.40;;;1.80;;
75016;SDS011;63577;39.766;2.720;2023-02-02T02:28:25;3.90;;;1.30;;
75016;SDS011;63577;39.766;2.720;2023-02-02T02:33:37;3.40;;;1.30;;
75016;SDS011;63577;39.766;2.720;2023-02-02T02:41:33;3.70;;;1.60;;
75016;SDS011;63577;39.766;2.720;2023-02-02T02:44:03;4.20;;;1.60;;
75016;SDS011;63577;39.766;2.720;2023-02-02T02:46:30;4.30;;;1.60;;
75016;SDS011;63577;39.766;2.720;2023-02-02T02:48:58;3.50;;;1.50;;
75016;SDS011;63577;39.766;2.720;2023-02-02T02:53:59;3.10;;;1.20;;
75016;SDS011;63577;39.766;2.720;2023-02-02T02:56:32;3.30;;;1.40;;
75016;SDS011;63577;39.766;2.720;2023-02-02T02:59:26;3.60;;;1.30;;
75016;SDS011;63577;39.766;2.720;2023-02-02T03:01:53;3.70;;;1.30;;
75016;SDS011;63577;39.766;2.720;2023-02-02T03:04:27;3.30;;;1.30;;
75016;SDS011;63577;39.766;2.720;2023-02-02T03:07:03;3.20;;;1.10;;
75016;SDS011;63577;39.766;2.720;2023-02-02T03:09:30;3.20;;;1.30;;
75016;SDS011;63577;39.766;2.720;2023-02-02T03:11:59;3.60;;;1.40;;
75016;SDS011;63577;39.766;2.720;2023-02-02T03:14:24;3.50;;;1.20;;
75016;SDS011;63577;39.766;2.720;2023-02-02T03:16:50;3.10;;;1.30;;
75016;SDS011;63577;39.766;2.720;2023-02-02T03:19:17;3.70;;;1.60;;
75016;SDS011;63577;39.766;2.720;2023-02-02T03:21:42;4.00;;;1.30;;
75016;SDS011;63577;39.766;2.720;2023-02-02T03:24:07;3.70;;;1.30;;
75016;SDS011;63577;39.766;2.720;2023-02-02T03:26:33;3.80;;;1.30;;
75016;SDS011;63577;39.766;2.720;2023-02-02T03:28:58;3.30;;;1.60;;
75016;SDS011;63577;39.766;2.720;2023-02-02T03:31:25;4.20;;;1.50;;
75016;SDS011;63577;39.766;2.720;2023-02-02T03:33:51;2.90;;;1.20;;
75016;SDS011;63577;39.766;2.720;2023-02-02T03:36:16;3.30;;;1.30;;
75016;SDS011;63577;39.766;2.720;2023-02-02T03:38:42;3.00;;;1.00;;
75016;SDS011;63577;39.766;2.720;2023-02-02T03:41:07;3.40;;;1.30;;
75016;SDS011;63577;39.766;2.720;2023-02-02T03:43:33;5.50;;;2.00;;
75016;SDS011;63577;39.766;2.720;2023-02-02T03:45:59;3.20;;;1.30;;
75016;SDS011;63577;39.766;2.720;2023-02-02T03:48:25;3.80;;;1.60;;
75016;SDS011;63577;39.766;2.720;2023-02-02T03:50:53;3.30;;;1.30;;
75016;SDS011;63577;39.766;2.720;2023-02-02T03:53:19;3.40;;;1.50;;
75016;SDS011;63577;39.766;2.720;2023-02-02T03:55:44;2.80;;;1.10;;
75016;SDS011;63577;39.766;2.720;2023-02-02T03:58:09;3.10;;;1.10;;
75016;SDS011;63577;39.766;2.720;2023-02-02T04:00:35;4.10;;;1.20;;
75016;SDS011;63577;39.766;2.720;2023-02-02T04:03:00;3.10;;;1.20;;
75016;SDS011;63577;39.766;2.720;2023-02-02T04:05:26;3.40;;;1.10;;
75016;SDS011;63577;39.766;2.720;2023-02-02T04:07:52;2.80;;;1.30;;
75016;SDS011;63577;39.766;2.720;2023-02-02T04:10:17;3.20;;;1.20;;
75016;SDS011;63577;39.766;2.720;2023-02-02T04:12:43;3.30;;;1.30;;
75016;SDS011;63577;39.766;2.720;2023-02-02T04:15:08;3.20;;;1.10;;
75016;SDS011;63577;39.766;2.720;2023-02-02T04:17:34;3.40;;;1.30;;
75016;SDS011;63577;39.766;2.720;2023-02-02T04:19:59;3.10;;;1.40;;
75016;SDS011;63577;39.766;2.720;2023-02-02T04:22:25;3.40;;;1.20;;
75016;SDS011;63577;39.766;2.720;2023-02-02T04:24:50;2.90;;;1.20;;
75016;SDS011;63577;39.766;2.720;2023-02-02T04:27:16;3.30;;;1.30;;
75016;SDS011;63577;39.766;2.720;2023-02-02T04:29:41;3.90;;;1.50;;
75016;SDS011;63577;39.766;2.720;2023-02-02T04:32:06;3.10;;;1.20;;
75016;SDS011;63577;39.766;2.720;2023-02-02T04:34:32;3.00;;;1.20;;
75016;SDS011;63577;39.766;2.720;2023-02-02T04:36:57;3.00;;;1.40;;
75016;SDS011;63577;39.766;2.720;2023-02-02T04:39:22;3.30;;;1.30;;
75016;SDS011;63577;39.766;2.720;2023-02-02T04:41:48;3.40;;;1.20;;
75016;SDS011;63577;39.766;2.720;2023-02-02T04:44:13;3.10;;;1.20;;
75016;SDS011;63577;39.766;2.720;2023-02-02T04:46:40;4.80;;;1.40;;
75016;SDS011;63577;39.766;2.720;2023-02-02T04:49:07;3.00;;;1.20;;
75016;SDS011;63577;39.766;2.720;2023-02-02T04:51:33;3.00;;;1.10;;
75016;SDS011;63577;39.766;2.720;2023-02-02T04:53:59;2.90;;;1.10;;
75016;SDS011;63577;39.766;2.720;2023-02-02T04:56:24;2.90;;;1.20;;
75016;SDS011;63577;39.766;2.720;2023-02-02T04:58:52;3.60;;;1.60;;
75016;SDS011;63577;39.766;2.720;2023-02-02T05:01:18;4.30;;;1.70;;
75016;SDS011;63577;39.766;2.720;2023-02-02T05:03:44;3.90;;;1.60;;
75016;SDS011;63577;39.766;2.720;2023-02-02T05:06:10;3.80;;;1.60;;
75016;SDS011;63577;39.766;2.720;2023-02-02T05:08:35;3.50;;;1.60;;
75016;SDS011;63577;39.766;2.720;2023-02-02T05:11:07;4.40;;;1.70;;
75016;SDS011;63577;39.766;2.720;2023-02-02T05:13:33;4.20;;;2.00;;
75016;SDS011;63577;39.766;2.720;2023-02-02T05:15:59;4.40;;;1.60;;
75016;SDS011;63577;39.766;2.720;2023-02-02T05:18:24;4.60;;;1.70;;
75016;SDS011;63577;39.766;2.720;2023-02-02T05:20:50;3.90;;;1.60;;
75016;SDS011;63577;39.766;2.720;2023-02-02T05:23:15;3.30;;;1.20;;
75016;SDS011;63577;39.766;2.720;2023-02-02T05:25:40;3.50;;;1.60;;
75016;SDS011;63577;39.766;2.720;2023-02-02T05:28:06;3.10;;;1.40;;
75016;SDS011;63577;39.766;2.720;2023-02-02T05:30:31;4.70;;;1.50;;
75016;SDS011;63577;39.766;2.720;2023-02-02T05:32:56;4.00;;;1.30;;
75016;SDS011;63577;39.766;2.720;2023-02-02T05:35:22;3.60;;;1.60;;
75016;SDS011;63577;39.766;2.720;2023-02-02T05:37:47;3.10;;;1.20;;
75016;SDS011;63577;39.766;2.720;2023-02-02T05:40:12;3.20;;;1.20;;
75016;SDS011;63577;39.766;2.720;2023-02-02T05:42:38;3.10;;;1.30;;
75016;SDS011;63577;39.766;2.720;2023-02-02T05:45:03;3.30;;;1.10;;
75016;SDS011;63577;39.766;2.720;2023-02-02T05:47:29;3.60;;;1.20;;
75016;SDS011;63577;39.766;2.720;2023-02-02T05:49:54;4.20;;;1.40;;
75016;SDS011;63577;39.766;2.720;2023-02-02T05:52:21;3.30;;;1.30;;
75016;SDS011;63577;39.766;2.720;2023-02-02T05:54:47;3.30;;;1.10;;
75016;SDS011;63577;39.766;2.720;2023-02-02T05:57:13;4.10;;;1.50;;
75016;SDS011;63577;39.766;2.720;2023-02-02T05:59:38;4.10;;;1.50;;
75016;SDS011;63577;39.766;2.720;2023-02-02T06:02:04;4.00;;;1.90;;
75016;SDS011;63577;39.766;2.720;2023-02-02T06:04:29;3.80;;;1.80;;
75016;SDS011;63577;39.766;2.720;2023-02-02T06:06:55;6.30;;;2.40;;
75016;SDS011;63577;39.766;2.720;2023-02-02T06:09:20;5.30;;;2.60;;
75016;SDS011;63577;39.766;2.720;2023-02-02T06:11:47;6.10;;;2.90;;
75016;SDS011;63577;39.766;2.720;2023-02-02T06:14:13;4.40;;;2.10;;
75016;SDS011;63577;39.766;2.720;2023-02-02T06:16:38;7.70;;;2.30;;
75016;SDS011;63577;39.766;2.720;2023-02-02T06:19:03;11.50;;;6.80;;
75016;SDS011;63577;39.766;2.720;2023-02-02T06:21:29;6.90;;;3.70;;
75016;SDS011;63577;39.766;2.720;2023-02-02T06:23:57;6.60;;;3.70;;
75016;SDS011;63577;39.766;2.720;2023-02-02T06:26:23;6.30;;;2.90;;
75016;SDS011;63577;39.766;2.720;2023-02-02T06:28:50;5.40;;;1.80;;
75016;SDS011;63577;39.766;2.720;2023-02-02T06:31:16;3.70;;;1.80;;
75016;SDS011;63577;39.766;2.720;2023-02-02T06:33:47;5.60;;;2.50;;
75016;SDS011;63577;39.766;2.720;2023-02-02T06:36:16;5.10;;;2.80;;
75016;SDS011;63577;39.766;2.720;2023-02-02T06:38:41;8.20;;;4.30;;
75016;SDS011;63577;39.766;2.720;2023-02-02T06:41:06;10.00;;;5.40;;
75016;SDS011;63577;39.766;2.720;2023-02-02T06:43:32;6.10;;;3.10;;
75016;SDS011;63577;39.766;2.720;2023-02-02T06:45:57;9.20;;;4.80;;
75016;SDS011;63577;39.766;2.720;2023-02-02T06:48:23;5.30;;;3.50;;
75016;SDS011;63577;39.766;2.720;2023-02-02T06:50:48;9.70;;;4.80;;
75016;SDS011;63577;39.766;2.720;2023-02-02T06:53:14;6.40;;;2.60;;
75016;SDS011;63577;39.766;2.720;2023-02-02T06:55:40;5.20;;;2.80;;
75016;SDS011;63577;39.766;2.720;2023-02-02T06:58:05;17.90;;;7.40;;
75016;SDS011;63577;39.766;2.720;2023-02-02T07:00:30;14.20;;;5.90;;
75016;SDS011;63577;39.766;2.720;2023-02-02T07:02:56;7.10;;;2.90;;
75016;SDS011;63577;39.766;2.720;2023-02-02T07:05:22;5.00;;;2.80;;
75016;SDS011;63577;39.766;2.720;2023-02-02T07:07:51;8.40;;;3.00;;
75016;SDS011;63577;39.766;2.720;2023-02-02T07:10:16;6.60;;;2.50;;
75016;SDS011;63577;39.766;2.720;2023-02-02T07:12:43;7.60;;;4.50;;
75016;SDS011;63577;39.766;2.720;2023-02-02T07:15:08;7.70;;;4.20;;
75016;SDS011;63577;39.766;2.720;2023-02-02T07:17:33;7.10;;;3.20;;
75016;SDS011;63577;39.766;2.720;2023-02-02T07:19:59;5.80;;;2.80;;
75016;SDS011;63577;39.766;2.720;2023-02-02T07:22:24;5.10;;;2.50;;
75016;SDS011;63577;39.766;2.720;2023-02-02T07:24:50;12.80;;;6.00;;
75016;SDS011;63577;39.766;2.720;2023-02-02T07:27:15;25.80;;;11.80;;
75016;SDS011;63577;39.766;2.720;2023-02-02T07:29:41;30.30;;;13.40;;
75016;SDS011;63577;39.766;2.720;2023-02-02T07:32:06;19.80;;;8.90;;
75016;SDS011;63577;39.766;2.720;2023-02-02T07:34:31;22.30;;;9.30;;
75016;SDS011;63577;39.766;2.720;2023-02-02T07:36:57;11.80;;;5.40;;
75016;SDS011;63577;39.766;2.720;2023-02-02T07:39:22;9.90;;;4.50;;
75016;SDS011;63577;39.766;2.720;2023-02-02T07:41:48;9.40;;;4.60;;
75016;SDS011;63577;39.766;2.720;2023-02-02T07:44:13;8.60;;;3.60;;
75016;SDS011;63577;39.766;2.720;2023-02-02T07:46:42;20.70;;;10.90;;
75016;SDS011;63577;39.766;2.720;2023-02-02T07:49:11;18.80;;;10.10;;
75016;SDS011;63577;39.766;2.720;2023-02-02T07:51:36;15.40;;;9.30;;
75016;SDS011;63577;39.766;2.720;2023-02-02T07:54:02;14.60;;;8.50;;
75016;SDS011;63577;39.766;2.720;2023-02-02T07:56:27;11.90;;;6.30;;
75016;SDS011;63577;39.766;2.720;2023-02-02T07:58:53;14.90;;;5.80;;
75016;SDS011;63577;39.766;2.720;2023-02-02T08:01:19;11.40;;;6.30;;
75016;SDS011;63577;39.766;2.720;2023-02-02T08:03:47;10.70;;;5.40;;
75016;SDS011;63577;39.766;2.720;2023-02-02T08:08:44;12.50;;;4.80;;
75016;SDS011;63577;39.766;2.720;2023-02-02T08:11:10;9.60;;;4.00;;
75016;SDS011;63577;39.766;2.720;2023-02-02T08:13:36;9.60;;;4.60;;
75016;SDS011;63577;39.766;2.720;2023-02-02T08:16:01;10.10;;;4.40;;
75016;SDS011;63577;39.766;2.720;2023-02-02T08:18:26;10.40;;;3.80;;
75016;SDS011;63577;39.766;2.720;2023-02-02T08:20:52;13.30;;;4.20;;
75016;SDS011;63577;39.766;2.720;2023-02-02T08:23:18;12.20;;;3.60;;
75016;SDS011;63577;39.766;2.720;2023-02-02T08:25:48;9.10;;;4.20;;
75016;SDS011;63577;39.766;2.720;2023-02-02T08:28:14;9.90;;;3.50;;
75016;SDS011;63577;39.766;2.720;2023-02-02T08:30:39;9.50;;;3.40;;
75016;SDS011;63577;39.766;2.720;2023-02-02T08:33:04;8.90;;;3.00;;
75016;SDS011;63577;39.766;2.720;2023-02-02T08:35:30;8.70;;;4.10;;
75016;SDS011;63577;39.766;2.720;2023-02-02T08:37:55;8.40;;;4.40;;
75016;SDS011;63577;39.766;2.720;2023-02-02T08:40:20;12.50;;;4.90;;
75016;SDS011;63577;39.766;2.720;2023-02-02T08:42:46;13.40;;;5.60;;
75016;SDS011;63577;39.766;2.720;2023-02-02T08:45:15;9.40;;;6.00;;
75016;SDS011;63577;39.766;2.720;2023-02-02T08:47:40;13.30;;;6.30;;
75016;SDS011;63577;39.766;2.720;2023-02-02T08:50:06;15.50;;;6.80;;
75016;SDS011;63577;39.766;2.720;2023-02-02T08:52:31;13.20;;;6.90;;
75016;SDS011;63577;39.766;2.720;2023-02-02T08:54:56;22.10;;;8.90;;
75016;SDS011;63577;39.766;2.720;2023-02-02T08:57:22;22.70;;;11.40;;
75016;SDS011;63577;39.766;2.720;2023-02-02T08:59:47;16.20;;;9.10;;
75016;SDS011;63577;39.766;2.720;2023-02-02T09:02:12;21.70;;;12.20;;
75016;SDS011;63577;39.766;2.720;2023-02-02T09:04:38;25.30;;;13.40;;
75016;SDS011;63577;39.766;2.720;2023-02-02T09:07:04;22.90;;;12.10;;
75016;SDS011;63577;39.766;2.720;2023-02-02T09:09:30;20.80;;;12.90;;
75016;SDS011;63577;39.766;2.720;2023-02-02T09:11:55;21.30;;;11.80;;
75016;SDS011;63577;39.766;2.720;2023-02-02T09:14:20;23.50;;;13.20;;
75016;SDS011;63577;39.766;2.720;2023-02-02T09:16:46;21.30;;;12.70;;
75016;SDS011;63577;39.766;2.720;2023-02-02T09:19:11;16.50;;;11.50;;
75016;SDS011;63577;39.766;2.720;2023-02-02T09:21:36;16.10;;;9.90;;
75016;SDS011;63577;39.766;2.720;2023-02-02T09:24:06;15.70;;;10.60;;
75016;SDS011;63577;39.766;2.720;2023-02-02T09:28:58;18.10;;;14.50;;
75016;SDS011;63577;39.766;2.720;2023-02-02T09:31:26;14.30;;;10.80;;
75016;SDS011;63577;39.766;2.720;2023-02-02T09:33:52;13.90;;;10.80;;
75016;SDS011;63577;39.766;2.720;2023-02-02T09:36:18;12.60;;;9.60;;
75016;SDS011;63577;39.766;2.720;2023-02-02T09:38:47;13.30;;;10.70;;
75016;SDS011;63577;39.766;2.720;2023-02-02T09:48:41;18.70;;;14.30;;
75016;SDS011;63577;39.766;2.720;2023-02-02T09:51:11;15.80;;;12.30;;
75016;SDS011;63577;39.766;2.720;2023-02-02T09:53:43;14.50;;;11.00;;
75016;SDS011;63577;39.766;2.720;2023-02-02T09:56:12;14.50;;;10.60;;
75016;SDS011;63577;39.766;2.720;2023-02-02T09:58:46;13.90;;;11.10;;
75016;SDS011;63577;39.766;2.720;2023-02-02T10:01:13;13.70;;;10.50;;
75016;SDS011;63577;39.766;2.720;2023-02-02T10:09:07;13.40;;;10.00;;
75016;SDS011;63577;39.766;2.720;2023-02-02T10:11:36;14.20;;;11.00;;
75016;SDS011;63577;39.766;2.720;2023-02-02T10:14:06;18.80;;;15.60;;
75016;SDS011;63577;39.766;2.720;2023-02-02T10:16:35;18.00;;;14.30;;
75016;SDS011;63577;39.766;2.720;2023-02-02T10:19:08;23.20;;;19.80;;
75016;SDS011;63577;39.766;2.720;2023-02-02T10:24:04;23.80;;;18.20;;
75016;SDS011;63577;39.766;2.720;2023-02-02T10:26:38;10.60;;;7.70;;
75016;SDS011;63577;39.766;2.720;2023-02-02T10:29:17;13.60;;;11.40;;
75016;SDS011;63577;39.766;2.720;2023-02-02T10:34:22;26.30;;;23.60;;
75016;SDS011;63577;39.766;2.720;2023-02-02T10:45:02;50.60;;;43.40;;
75016;SDS011;63577;39.766;2.720;2023-02-02T10:47:29;12.80;;;10.60;;
75016;SDS011;63577;39.766;2.720;2023-02-02T10:50:01;11.80;;;8.40;;
75016;SDS011;63577;39.766;2.720;2023-02-02T10:52:31;30.50;;;23.80;;
75016;SDS011;63577;39.766;2.720;2023-02-02T11:02:25;7.70;;;4.70;;
75016;SDS011;63577;39.766;2.720;2023-02-02T11:04:51;6.70;;;4.10;;
75016;SDS011;63577;39.766;2.720;2023-02-02T11:07:35;6.50;;;3.40;;
75016;SDS011;63577;39.766;2.720;2023-02-02T11:10:00;6.50;;;3.20;;
75016;SDS011;63577;39.766;2.720;2023-02-02T11:12:36;5.60;;;3.00;;
75016;SDS011;63577;39.766;2.720;2023-02-02T11:15:06;6.00;;;3.40;;
75016;SDS011;63577;39.766;2.720;2023-02-02T11:17:31;5.10;;;2.90;;
75016;SDS011;63577;39.766;2.720;2023-02-02T11:19:57;5.90;;;3.10;;
75016;SDS011;63577;39.766;2.720;2023-02-02T11:24:49;5.50;;;3.40;;
75016;SDS011;63577;39.766;2.720;2023-02-02T11:27:23;5.80;;;3.00;;
75016;SDS011;63577;39.766;2.720;2023-02-02T11:29:50;5.80;;;2.70;;
75016;SDS011;63577;39.766;2.720;2023-02-02T11:32:32;7.50;;;3.10;;
75016;SDS011;63577;39.766;2.720;2023-02-02T11:37:33;6.60;;;3.60;;
75016;SDS011;63577;39.766;2.720;2023-02-02T11:40:34;6.70;;;3.20;;
75016;SDS011;63577;39.766;2.720;2023-02-02T11:42:54;9.40;;;3.30;;
75016;SDS011;63577;39.766;2.720;2023-02-02T11:45:37;9.10;;;3.40;;
75016;SDS011;63577;39.766;2.720;2023-02-02T11:48:04;6.30;;;3.10;;
75016;SDS011;63577;39.766;2.720;2023-02-02T11:50:30;5.60;;;2.90;;
75016;SDS011;63577;39.766;2.720;2023-02-02T11:52:56;6.30;;;3.00;;
75016;SDS011;63577;39.766;2.720;2023-02-02T11:55:26;6.00;;;3.00;;
75016;SDS011;63577;39.766;2.720;2023-02-02T12:00:44;6.80;;;3.00;;
75016;SDS011;63577;39.766;2.720;2023-02-02T12:03:21;7.50;;;3.30;;
75016;SDS011;63577;39.766;2.720;2023-02-02T12:05:47;6.10;;;3.30;;
75016;SDS011;63577;39.766;2.720;2023-02-02T12:08:14;6.90;;;3.00;;
75016;SDS011;63577;39.766;2.720;2023-02-02T12:33:34;7.10;;;3.90;;
75016;SDS011;63577;39.766;2.720;2023-02-02T12:43:40;8.20;;;3.60;;
75016;SDS011;63577;39.766;2.720;2023-02-02T12:54:14;5.70;;;2.90;;
75016;SDS011;63577;39.766;2.720;2023-02-02T12:56:43;10.50;;;3.00;;
75016;SDS011;63577;39.766;2.720;2023-02-02T13:01:55;7.70;;;2.80;;
75016;SDS011;63577;39.766;2.720;2023-02-02T13:07:15;7.00;;;3.20;;
75016;SDS011;63577;39.766;2.720;2023-02-02T13:09:51;7.20;;;3.40;;
75016;SDS011;63577;39.766;2.720;2023-02-02T13:12:23;7.60;;;2.70;;
75016;SDS011;63577;39.766;2.720;2023-02-02T13:15:00;6.20;;;2.70;;
75016;SDS011;63577;39.766;2.720;2023-02-02T13:17:37;5.80;;;2.60;;
75016;SDS011;63577;39.766;2.720;2023-02-02T13:22:33;5.10;;;2.50;;
75016;SDS011;63577;39.766;2.720;2023-02-02T13:25:02;7.10;;;2.60;;
75016;SDS011;63577;39.766;2.720;2023-02-02T13:27:29;7.20;;;3.30;;
75016;SDS011;63577;39.766;2.720;2023-02-02T13:30:04;7.40;;;3.50;;
75016;SDS011;63577;39.766;2.720;2023-02-02T13:32:36;10.20;;;5.60;;
75016;SDS011;63577;39.766;2.720;2023-02-02T13:35:03;9.40;;;4.70;;
75016;SDS011;63577;39.766;2.720;2023-02-02T13:37:33;7.50;;;4.00;;
75016;SDS011;63577;39.766;2.720;2023-02-02T13:42:43;9.20;;;3.90;;
75016;SDS011;63577;39.766;2.720;2023-02-02T13:45:23;7.50;;;3.70;;
75016;SDS011;63577;39.766;2.720;2023-02-02T13:47:53;5.80;;;2.80;;
75016;SDS011;63577;39.766;2.720;2023-02-02T13:50:22;7.50;;;3.40;;
75016;SDS011;63577;39.766;2.720;2023-02-02T13:53:18;8.20;;;4.70;;
75016;SDS011;63577;39.766;2.720;2023-02-02T13:55:48;13.20;;;6.60;;
75016;SDS011;63577;39.766;2.720;2023-02-02T13:58:21;11.70;;;5.60;;
75016;SDS011;63577;39.766;2.720;2023-02-02T14:00:53;10.20;;;5.60;;
75016;SDS011;63577;39.766;2.720;2023-02-02T14:05:47;8.20;;;4.90;;
75016;SDS011;63577;39.766;2.720;2023-02-02T14:08:26;8.40;;;4.10;;
75016;SDS011;63577;39.766;2.720;2023-02-02T14:13:18;6.60;;;3.60;;
75016;SDS011;63577;39.766;2.720;2023-02-02T14:16:03;7.30;;;3.80;;
75016;SDS011;63577;39.766;2.720;2023-02-02T14:22:00;7.10;;;3.30;;
75016;SDS011;63577;39.766;2.720;2023-02-02T14:23:59;5.70;;;3.10;;
75016;SDS011;63577;39.766;2.720;2023-02-02T14:26:46;6.60;;;2.90;;
75016;SDS011;63577;39.766;2.720;2023-02-02T14:31:54;6.30;;;3.10;;
75016;SDS011;63577;39.766;2.720;2023-02-02T14:36:57;6.50;;;3.20;;
75016;SDS011;63577;39.766;2.720;2023-02-02T14:39:24;6.60;;;3.20;;
75016;SDS011;63577;39.766;2.720;2023-02-02T14:42:05;6.70;;;3.50;;
75016;SDS011;63577;39.766;2.720;2023-02-02T14:45:11;7.10;;;3.30;;
75016;SDS011;63577;39.766;2.720;2023-02-02T14:47:44;6.90;;;3.40;;
75016;SDS011;63577;39.766;2.720;2023-02-02T14:50:22;6.60;;;2.90;;
75016;SDS011;63577;39.766;2.720;2023-02-02T14:52:55;5.80;;;3.40;;
75016;SDS011;63577;39.766;2.720;2023-02-02T14:55:21;6.50;;;3.10;;
75016;SDS011;63577;39.766;2.720;2023-02-02T14:57:54;11.60;;;4.60;;
75016;SDS011;63577;39.766;2.720;2023-02-02T15:00:21;7.60;;;3.80;;
75016;SDS011;63577;39.766;2.720;2023-02-02T15:02:47;6.80;;;3.60;;
75016;SDS011;63577;39.766;2.720;2023-02-02T15:13:19;18.30;;;12.40;;
75016;SDS011;63577;39.766;2.720;2023-02-02T15:15:46;14.80;;;9.20;;
75016;SDS011;63577;39.766;2.720;2023-02-02T15:18:24;11.70;;;6.00;;
75016;SDS011;63577;39.766;2.720;2023-02-02T15:20:52;8.40;;;5.20;;
75016;SDS011;63577;39.766;2.720;2023-02-02T15:23:31;11.20;;;5.10;;
75016;SDS011;63577;39.766;2.720;2023-02-02T15:28:42;13.30;;;7.90;;
75016;SDS011;63577;39.766;2.720;2023-02-02T15:31:17;13.00;;;7.60;;
75016;SDS011;63577;39.766;2.720;2023-02-02T15:33:50;16.80;;;9.50;;
75016;SDS011;63577;39.766;2.720;2023-02-02T15:37:01;16.30;;;9.20;;
75016;SDS011;63577;39.766;2.720;2023-02-02T15:39:10;11.10;;;6.10;;
75016;SDS011;63577;39.766;2.720;2023-02-02T15:41:41;13.30;;;7.90;;
75016;SDS011;63577;39.766;2.720;2023-02-02T15:46:33;9.10;;;5.10;;
75016;SDS011;63577;39.766;2.720;2023-02-02T15:51:47;9.00;;;5.20;;
75016;SDS011;63577;39.766;2.720;2023-02-02T15:56:39;7.60;;;4.00;;
75016;SDS011;63577;39.766;2.720;2023-02-02T15:59:13;6.30;;;4.00;;
75016;SDS011;63577;39.766;2.720;2023-02-02T16:01:45;28.60;;;15.70;;
75016;SDS011;63577;39.766;2.720;2023-02-02T16:06:43;16.50;;;8.90;;
75016;SDS011;63577;39.766;2.720;2023-02-02T16:09:12;8.20;;;5.00;;
75016;SDS011;63577;39.766;2.720;2023-02-02T16:11:42;7.40;;;3.60;;
75016;SDS011;63577;39.766;2.720;2023-02-02T16:14:12;9.30;;;5.00;;
75016;SDS011;63577;39.766;2.720;2023-02-02T16:16:38;51.20;;;33.00;;
75016;SDS011;63577;39.766;2.720;2023-02-02T16:19:11;8.30;;;5.30;;
75016;SDS011;63577;39.766;2.720;2023-02-02T16:21:48;12.10;;;9.30;;
75016;SDS011;63577;39.766;2.720;2023-02-02T16:24:16;27.80;;;23.80;;
75016;SDS011;63577;39.766;2.720;2023-02-02T16:26:43;30.10;;;22.20;;
75016;SDS011;63577;39.766;2.720;2023-02-02T16:29:10;20.30;;;13.30;;
75016;SDS011;63577;39.766;2.720;2023-02-02T16:31:36;20.50;;;14.50;;
75016;SDS011;63577;39.766;2.720;2023-02-02T16:34:02;22.10;;;15.00;;
75016;SDS011;63577;39.766;2.720;2023-02-02T16:36:28;16.70;;;13.10;;
75016;SDS011;63577;39.766;2.720;2023-02-02T16:38:54;51.00;;;36.40;;
75016;SDS011;63577;39.766;2.720;2023-02-02T16:41:26;182.40;;;134.00;;
75016;SDS011;63577;39.766;2.720;2023-02-02T16:43:52;143.90;;;100.30;;
75016;SDS011;63577;39.766;2.720;2023-02-02T16:46:39;82.70;;;57.20;;
75016;SDS011;63577;39.766;2.720;2023-02-02T16:49:03;50.50;;;34.70;;
75016;SDS011;63577;39.766;2.720;2023-02-02T16:51:30;82.30;;;50.20;;
75016;SDS011;63577;39.766;2.720;2023-02-02T16:53:57;44.20;;;25.40;;
75016;SDS011;63577;39.766;2.720;2023-02-02T16:56:34;20.10;;;11.50;;
75016;SDS011;63577;39.766;2.720;2023-02-02T16:59:03;24.30;;;12.00;;
75016;SDS011;63577;39.766;2.720;2023-02-02T17:01:31;63.20;;;29.70;;
75016;SDS011;63577;39.766;2.720;2023-02-02T17:03:58;75.90;;;33.30;;
75016;SDS011;63577;39.766;2.720;2023-02-02T17:06:28;50.30;;;27.40;;
75016;SDS011;63577;39.766;2.720;2023-02-02T17:08:54;47.20;;;25.70;;
75016;SDS011;63577;39.766;2.720;2023-02-02T17:11:23;44.80;;;28.20;;
75016;SDS011;63577;39.766;2.720;2023-02-02T17:13:49;81.20;;;47.30;;
75016;SDS011;63577;39.766;2.720;2023-02-02T17:16:18;70.20;;;40.20;;
75016;SDS011;63577;39.766;2.720;2023-02-02T17:18:44;67.30;;;33.70;;
75016;SDS011;63577;39.766;2.720;2023-02-02T17:21:12;65.50;;;30.20;;